Partridge, Minnesota
Current Conditions -  °F | °C
As of 3:33 AM on Thursday 23 Oct 2014 (Local Time) from KMZH Reporting Station
Overcast Overcast  
Wind Chill: 50°   Ceiling: 2300
Heat Index: 50°   Visibility: 10mi
Dew Point: 41°   Wind: 5mph
Humidity: 71%   Direction: 190°S
Pressure: 29.95"   Gusts: NA
Location:  46.2004°N, 92.675°W
Report Text: KMZH 230833Z AUTO 19004KT 10SM OVC023 10/05 A2995 RMK AO2
Loading
Personal Weather Stations






























Interactive Weather Map
Tropical Storm Tracking
New forecast layout! Learn more

10-Day Weather Forecast

Advertisements
Track Severe Weather on mobile